Time;durP1;ratioP1;P1;durP2;ratioP2;P2;SDS_P1;SDS_P2;PMS_P1;PMS_P2;Temp;Humidity;BMP_temperature;BMP_pressure;BME280_temperature;BME280_humidity;BME280_pressure;Samples;Min_cycle;Max_cycle;Signal;HPM_P1;HPM_P2
2022/09/05 00:01:22;;;;;;;;;;;;;;;23.60;48.60;101537.38;5149670;27;19985;-38
2022/09/05 00:03:59;;;;;;;;;;;;;;;23.61;48.04;101535.41;5167903;27;19930;-38
2022/09/05 00:06:49;;;;;;;;;;;;;;;23.60;48.51;101523.47;5152233;27;19955;-39
2022/09/05 00:09:18;;;;;;;;;;;;;;;23.61;48.51;101532.63;5165956;27;19962;-38
2022/09/05 00:11:48;;;;;;;;;;;;;;;23.60;48.23;101533.75;5149586;27;20270;-39
2022/09/05 00:14:32;;;;;;;;;;;;;;;23.60;48.16;101540.16;5146511;27;20010;-38
2022/09/05 00:17:37;;;;;;;;;;;;;;;23.60;48.37;101542.94;5148222;27;19960;-38
2022/09/05 00:20:43;;;;;;;;;;;;;;;23.60;48.37;101534.59;5140740;27;19923;-38
2022/09/05 00:23:48;;;;;;;;;;;;;;;23.61;48.52;101536.25;5144812;27;19923;-38
2022/09/05 00:26:54;;;;;;;;;;;;;;;23.61;48.58;101535.41;5145428;27;19992;-38
2022/09/05 00:29:30;;;;;;;;;;;;;;;23.60;48.61;101534.59;5148496;27;19974;-38
2022/09/05 00:32:18;;;;;;;;;;;;;;;23.61;48.53;101539.03;5149907;27;20408;-38
2022/09/05 00:35:05;;;;;;;;;;;;;;;23.60;48.11;101531.81;5164361;27;19963;-38
2022/09/05 00:37:31;;;;;;;;;;;;;;;23.61;48.41;101538.19;5150324;27;19971;-38
2022/09/05 00:40:10;;;;;;;;;;;;;;;23.60;48.58;101526.25;5165820;27;19923;-38
2022/09/05 00:42:44;;;;;;;;;;;;;;;23.61;48.36;101535.41;5164894;27;19935;-38
2022/09/05 00:45:13;;;;;;;;;;;;;;;23.59;48.39;101532.94;5167181;27;19934;-38
2022/09/05 00:50:24;;;;;;;;;;;;;;;23.60;48.51;101529.03;5189077;27;20006;-38
2022/09/05 00:52:56;;;;;;;;;;;;;;;23.60;48.68;101526.25;5149237;27;20558;-38
2022/09/05 00:55:38;;;;;;;;;;;;;;;23.60;48.33;101531.81;5152155;27;19931;-38
2022/09/05 00:58:08;;;;;;;;;;;;;;;23.61;48.42;101535.41;5149807;27;20022;-38
2022/09/05 01:00:44;;;;;;;;;;;;;;;23.61;48.38;101536.25;5168757;27;20031;-38
2022/09/05 01:03:11;;;;;;;;;;;;;;;23.60;48.43;101534.59;5151148;27;19978;-38
2022/09/05 01:05:44;;;;;;;;;;;;;;;23.60;48.53;101531.81;5169348;27;19963;-38
2022/09/05 01:08:29;;;;;;;;;;;;;;;23.61;48.32;101539.03;5169602;27;20026;-38
2022/09/05 01:11:10;;;;;;;;;;;;;;;23.61;48.50;101536.25;5154449;27;20026;-38
2022/09/05 01:13:44;;;;;;;;;;;;;;;23.60;48.37;101526.25;5151826;27;20402;-38
2022/09/05 01:16:29;;;;;;;;;;;;;;;23.60;48.45;101537.38;5167555;27;20017;-38
2022/09/05 01:19:00;;;;;;;;;;;;;;;23.60;48.66;101533.75;5155300;27;19927;-38
2022/09/05 01:21:47;;;;;;;;;;;;;;;23.61;48.33;101538.19;5169076;27;19989;-38
2022/09/05 01:24:33;;;;;;;;;;;;;;;23.60;48.63;101530.97;5153608;27;20277;-38
2022/09/05 01:29:57;;;;;;;;;;;;;;;23.59;48.61;101538.50;5183200;27;19925;-38
2022/09/05 01:32:28;;;;;;;;;;;;;;;23.60;48.45;101528.19;5152239;27;19962;-38
2022/09/05 01:35:14;;;;;;;;;;;;;;;23.61;48.45;101535.41;5147952;27;19962;-38
2022/09/05 01:37:45;;;;;;;;;;;;;;;23.60;48.50;101533.75;5148092;27;19966;-40
2022/09/05 01:40:30;;;;;;;;;;;;;;;23.61;48.42;101525.13;5166519;27;19977;-38
2022/09/05 01:43:01;;;;;;;;;;;;;;;23.60;48.50;101525.44;5144497;27;19931;-38
2022/09/05 01:45:31;;;;;;;;;;;;;;;23.60;48.63;101525.44;5153807;27;20429;-38
2022/09/05 01:48:14;;;;;;;;;;;;;;;23.59;48.66;101524.59;5154924;27;19975;-38
2022/09/05 01:50:49;;;;;;;;;;;;;;;23.61;48.55;101529.84;5154894;27;20033;-38
2022/09/05 01:53:36;;;;;;;;;;;;;;;23.60;48.46;101525.44;5155569;27;19923;-38
2022/09/05 01:56:22;;;;;;;;;;;;;;;23.60;48.45;101520.69;5135883;27;19924;-38
2022/09/05 01:58:53;;;;;;;;;;;;;;;23.59;48.61;101524.59;5134108;27;19936;-38
2022/09/05 02:01:27;;;;;;;;;;;;;;;23.59;48.25;101524.59;5155621;27;20010;-38
2022/09/05 02:04:18;;;;;;;;;;;;;;;23.61;48.44;101530.69;5150435;27;20039;-38
2022/09/05 02:06:51;;;;;;;;;;;;;;;23.60;48.42;101531.81;5138731;27;20014;-39
2022/09/05 02:09:36;;;;;;;;;;;;;;;23.61;48.44;101540.97;5161349;27;20022;-38
2022/09/05 02:12:05;;;;;;;;;;;;;;;23.60;48.52;101540.16;5135973;27;21598;-38
2022/09/05 02:14:38;;;;;;;;;;;;;;;23.60;48.65;101525.44;5153281;27;20356;-38
2022/09/05 02:17:20;;;;;;;;;;;;;;;23.60;48.76;101533.75;5151121;27;19930;-39
2022/09/05 02:20:25;;;;;;;;;;;;;;;23.60;48.08;101529.03;5140761;27;19923;-38
2022/09/05 02:23:01;;;;;;;;;;;;;;;23.59;48.45;101532.94;5136955;27;20356;-38
2022/09/05 02:25:28;;;;;;;;;;;;;;;23.60;48.63;101528.19;5155833;27;19931;-38
2022/09/05 02:28:32;;;;;;;;;;;;;;;23.60;48.53;101531.81;5124488;27;19930;-39
2022/09/05 02:31:01;;;;;;;;;;;;;;;23.59;48.53;101524.59;5152517;27;19969;-38
2022/09/05 02:33:47;;;;;;;;;;;;;;;23.60;48.43;101530.97;5151878;27;19923;-38
2022/09/05 02:36:15;;;;;;;;;;;;;;;23.60;48.47;101530.97;5151303;27;19932;-38
2022/09/05 02:38:42;;;;;;;;;;;;;;;23.60;48.69;101531.81;5156104;27;19966;-38
2022/09/05 02:41:44;;;;;;;;;;;;;;;23.60;48.50;101525.44;5121789;27;19938;-38
2022/09/05 02:44:49;;;;;;;;;;;;;;;23.60;48.43;101531.81;5120205;27;19983;-39
2022/09/05 02:47:54;;;;;;;;;;;;;;;23.59;48.58;101527.38;5110364;27;21415;-38
2022/09/05 02:50:40;;;;;;;;;;;;;;;23.60;48.53;101531.81;5126127;27;19991;-38
2022/09/05 02:53:25;;;;;;;;;;;;;;;23.59;48.60;101530.16;5115582;27;20406;-38
2022/09/05 02:56:31;;;;;;;;;;;;;;;23.60;48.45;101533.75;5124228;27;19969;-38
2022/09/05 02:59:36;;;;;;;;;;;;;;;23.60;48.49;101536.53;5122958;27;20338;-38
2022/09/05 03:02:22;;;;;;;;;;;;;;;23.59;48.70;101534.91;5124954;27;19923;-38
2022/09/05 03:04:58;;;;;;;;;;;;;;;23.59;48.56;101535.72;5122599;27;20538;-38
2022/09/05 03:07:39;;;;;;;;;;;;;;;23.60;48.60;101533.75;5137098;27;20014;-38
2022/09/05 03:10:27;;;;;;;;;;;;;;;23.60;48.69;101542.09;5135065;27;20026;-38
2022/09/05 03:13:21;;;;;;;;;;;;;;;23.60;48.49;101542.09;5113411;27;19923;-38
2022/09/05 03:18:46;;;;;;;;;;;;;;;23.60;48.61;101530.97;5181342;27;20010;-38
2022/09/05 03:21:32;;;;;;;;;;;;;;;23.60;48.35;101533.75;5151872;27;19959;-38
2022/09/05 03:24:17;;;;;;;;;;;;;;;23.59;48.18;101532.94;5150846;27;19977;-38
2022/09/05 03:27:03;;;;;;;;;;;;;;;23.59;48.47;101535.72;5151131;27;20452;-38
2022/09/05 03:29:48;;;;;;;;;;;;;;;23.60;48.46;101530.97;5152951;27;20031;-38
2022/09/05 03:32:31;;;;;;;;;;;;;;;23.61;48.10;101538.19;5163295;27;20360;-38
2022/09/05 03:35:11;;;;;;;;;;;;;;;23.60;48.25;101533.75;5168706;27;19923;-38
2022/09/05 03:37:56;;;;;;;;;;;;;;;23.60;48.37;101536.53;5167722;27;19958;-38
2022/09/05 03:40:42;;;;;;;;;;;;;;;23.59;48.63;101538.50;5151101;27;20326;-38
2022/09/05 03:43:28;;;;;;;;;;;;;;;23.60;48.70;101536.53;5147548;27;20021;-38
2022/09/05 03:46:14;;;;;;;;;;;;;;;23.61;48.27;101543.75;5132519;27;20449;-38
2022/09/05 03:48:50;;;;;;;;;;;;;;;23.59;48.41;101544.06;5139466;27;19922;-38
2022/09/05 03:51:35;;;;;;;;;;;;;;;23.59;48.40;101540.47;5156458;27;20364;-37
2022/09/05 03:54:41;;;;;;;;;;;;;;;23.59;48.47;101538.50;5122830;27;19923;-38
2022/09/05 03:57:46;;;;;;;;;;;;;;;23.59;48.51;101546.84;5122936;27;20285;-38
2022/09/05 04:00:28;;;;;;;;;;;;;;;23.59;48.67;101544.06;5137019;27;20009;-38
2022/09/05 04:02:59;;;;;;;;;;;;;;;23.60;48.49;101547.66;5152368;27;20006;-38
2022/09/05 04:05:46;;;;;;;;;;;;;;;23.60;48.28;101539.31;5134611;27;20361;-38
2022/09/05 04:08:39;;;;;;;;;;;;;;;23.59;48.56;101541.28;5126668;27;19927;-38
2022/09/05 04:11:14;;;;;;;;;;;;;;;23.59;48.72;101541.28;5150517;27;19931;-39
2022/09/05 04:13:44;;;;;;;;;;;;;;;23.59;48.60;101541.28;5151788;27;20075;-38
2022/09/05 04:16:30;;;;;;;;;;;;;;;23.59;48.74;101546.03;5128335;27;20364;-38
2022/09/05 04:19:06;;;;;;;;;;;;;;;23.59;48.53;101544.06;5136430;27;19923;-38
2022/09/05 04:21:32;;;;;;;;;;;;;;;23.59;48.35;101543.25;5153364;27;20367;-38
2022/09/05 04:24:01;;;;;;;;;;;;;;;23.60;48.61;101548.50;5154320;27;19962;-38
2022/09/05 04:26:37;;;;;;;;;;;;;;;23.60;48.39;101550.44;5153626;27;20014;-38
2022/09/05 04:29:22;;;;;;;;;;;;;;;23.60;48.55;101548.50;5142250;27;20026;-38
2022/09/05 04:31:54;;;;;;;;;;;;;;;23.59;48.60;101552.41;5127151;27;20018;-38
2022/09/05 04:34:45;;;;;;;;;;;;;;;23.61;48.54;101557.66;5121475;27;20289;-38
2022/09/05 04:37:11;;;;;;;;;;;;;;;23.59;48.85;101549.63;5138468;27;19923;-38
2022/09/05 04:39:36;;;;;;;;;;;;;;;23.59;48.59;101549.63;5142014;27;20361;-38
2022/09/05 04:42:10;;;;;;;;;;;;;;;23.59;48.58;101548.81;5121715;27;19986;-38
2022/09/05 04:44:45;;;;;;;;;;;;;;;23.58;48.69;101550.75;5137517;27;19967;-39
2022/09/05 04:47:12;;;;;;;;;;;;;;;23.59;48.59;101546.03;5138045;27;20022;-38
2022/09/05 04:49:45;;;;;;;;;;;;;;;23.58;48.71;101550.75;5143393;27;19978;-38
2022/09/05 04:52:33;;;;;;;;;;;;;;;23.59;48.61;101554.34;5125283;27;19976;-38
2022/09/05 04:55:05;;;;;;;;;;;;;;;23.59;48.60;101563.53;5130425;27;20398;-38
2022/09/05 04:57:37;;;;;;;;;;;;;;;23.59;48.71;101560.75;5112812;27;20006;-38
2022/09/05 05:00:06;;;;;;;;;;;;;;;23.58;48.76;101559.09;5128959;27;20010;-38
2022/09/05 05:02:55;;;;;;;;;;;;;;;23.59;48.54;101560.75;5104078;27;20418;-38
2022/09/05 05:08:23;;;;;;;;;;;;;;;23.58;48.79;101559.09;5172479;27;19929;-38
2022/09/05 05:11:06;;;;;;;;;;;;;;;23.60;48.60;101570.72;5171014;27;19982;-38
2022/09/05 05:13:53;;;;;;;;;;;;;;;23.59;48.78;101571.88;5153700;27;19926;-38
2022/09/05 05:16:40;;;;;;;;;;;;;;;23.59;48.59;101571.88;5145039;27;19935;-37
2022/09/05 05:19:37;;;;;;;;;;;;;;;23.59;48.64;101569.09;5136952;27;19939;-38
2022/09/05 05:22:02;;;;;;;;;;;;;;;23.60;48.39;101567.13;5169279;27;19938;-38
2022/09/05 05:24:32;;;;;;;;;;;;;;;23.59;48.44;101571.03;5169358;27;19923;-38
2022/09/05 05:27:18;;;;;;;;;;;;;;;23.61;48.30;101568.78;5158253;27;20021;-38
2022/09/05 05:29:48;;;;;;;;;;;;;;;23.59;48.59;101571.88;5149923;27;20025;-38
2022/09/05 05:32:15;;;;;;;;;;;;;;;23.58;48.83;101567.44;5160919;27;19934;-38
2022/09/05 05:34:51;;;;;;;;;;;;;;;23.58;48.64;101570.22;5171549;27;19931;-38
2022/09/05 05:37:22;;;;;;;;;;;;;;;23.59;48.75;101582.16;5163751;27;20014;-38
2022/09/05 05:39:49;;;;;;;;;;;;;;;23.60;48.73;101579.06;5159829;27;20394;-38
2022/09/05 05:42:16;;;;;;;;;;;;;;;23.60;48.69;101581.03;5149915;27;19924;-39
2022/09/05 05:44:47;;;;;;;;;;;;;;;23.60;48.61;101579.06;5143445;27;19931;-38
2022/09/05 05:47:18;;;;;;;;;;;;;;;23.60;48.61;101576.28;5145435;27;19970;-39
2022/09/05 05:52:47;;;;;;;;;;;;;;;23.59;49.15;101580.22;5165574;27;20010;-40
2022/09/05 05:55:32;;;;;;;;;;;;;;;23.62;49.05;101587.97;5159208;27;20067;-41
2022/09/05 05:58:23;;;;;;;;;;;;;;;23.64;49.08;101588.47;5147949;27;19975;-40
2022/09/05 06:01:12;;;;;;;;;;;;;;;23.63;48.92;101583.22;5159847;27;19951;-39
2022/09/05 06:04:17;;;;;;;;;;;;;;;23.63;49.18;101589.63;5111927;27;20059;-40
2022/09/05 06:09:43;;;;;;;;;;;;;;;23.63;48.73;101588.78;5156787;27;20025;-38
2022/09/05 06:12:39;;;;;;;;;;;;;;;23.62;48.91;101590.75;5128689;27;20416;-39
2022/09/05 06:18:25;;;;;;;;;;;;;;;23.64;48.87;101590.44;5161661;27;19925;-40
2022/09/05 06:21:11;;;;;;;;;;;;;;;23.64;48.88;101588.47;5145295;27;19931;-40
2022/09/05 06:24:04;;;;;;;;;;;;;;;23.55;50.08;101584.69;5132946;27;19935;-46
2022/09/05 06:26:49;;;;;;;;;;;;;;;23.57;50.55;101588.00;5161988;27;20034;-46
2022/09/05 06:29:35;;;;;;;;;;;;;;;23.32;51.07;101591.06;5144601;27;20007;-42
2022/09/05 06:32:23;;;;;;;;;;;;;;;23.27;51.05;101595.56;5147228;27;19931;-41
2022/09/05 06:35:09;;;;;;;;;;;;;;;23.39;51.00;101586.81;5143240;27;20039;-39
2022/09/05 06:37:38;;;;;;;;;;;;;;;23.53;50.60;101595.28;5141208;27;19982;-40
2022/09/05 06:40:13;;;;;;;;;;;;;;;23.56;50.79;101593.88;5159287;27;20399;-40
2022/09/05 06:42:46;;;;;;;;;;;;;;;23.62;50.43;101599.09;5155873;27;20067;-41
2022/09/05 06:45:16;;;;;;;;;;;;;;;23.58;50.40;101591.63;5159746;27;20021;-42
2022/09/05 06:47:55;;;;;;;;;;;;;;;23.58;50.53;101597.19;5155058;27;19962;-40
2022/09/05 06:50:23;;;;;;;;;;;;;;;23.62;50.18;101596.31;5152700;27;20419;-44
2022/09/05 06:53:13;;;;;;;;;;;;;;;23.63;50.04;101594.34;5154608;27;20021;-40
2022/09/05 06:58:52;;;;;;;;;;;;;;;23.67;50.16;101595.44;5171931;27;20001;-41
2022/09/05 07:01:25;;;;;;;;;;;;;;;23.68;50.11;101594.31;5127535;27;19942;-41
2022/09/05 07:04:14;;;;;;;;;;;;;;;23.67;50.06;101599.06;5145050;27;19939;-40
2022/09/05 07:07:02;;;;;;;;;;;;;;;23.68;50.00;101600.72;5128349;27;19927;-38
2022/09/05 07:09:52;;;;;;;;;;;;;;;23.69;50.14;101596.78;5148894;27;19935;-39
2022/09/05 07:12:22;;;;;;;;;;;;;;;23.69;49.92;101595.97;5127910;27;20010;-39
2022/09/05 07:15:07;;;;;;;;;;;;;;;23.69;50.13;101598.75;5149972;27;19923;-38
2022/09/05 07:17:38;;;;;;;;;;;;;;;23.70;50.13;101609.56;5131494;27;19934;-39
2022/09/05 07:20:25;;;;;;;;;;;;;;;23.70;50.09;101601.22;5134901;27;19930;-38
2022/09/05 07:22:53;;;;;;;;;;;;;;;23.70;50.04;101604.00;5154295;27;19979;-38
2022/09/05 07:25:21;;;;;;;;;;;;;;;23.70;50.12;101604.00;5151685;27;20203;-38
2022/09/05 07:27:50;;;;;;;;;;;;;;;23.72;50.17;101609.28;5154743;27;20022;-39
2022/09/05 07:30:37;;;;;;;;;;;;;;;23.71;50.18;101614.03;5125037;27;20369;-38
2022/09/05 07:33:02;;;;;;;;;;;;;;;23.71;49.95;101614.03;5153738;27;20017;-40
2022/09/05 07:35:30;;;;;;;;;;;;;;;23.73;50.20;101613.72;5155583;27;20359;-40
2022/09/05 07:38:12;;;;;;;;;;;;;;;23.73;50.00;101608.16;5148524;27;20003;-38
2022/09/05 07:40:39;;;;;;;;;;;;;;;23.73;49.98;101617.34;5157347;27;20023;-38
2022/09/05 07:43:06;;;;;;;;;;;;;;;23.74;49.79;101612.59;5132280;27;19980;-39
2022/09/05 07:45:36;;;;;;;;;;;;;;;23.74;49.87;101612.59;5135184;27;19932;-38
2022/09/05 07:48:05;;;;;;;;;;;;;;;23.74;49.87;101612.59;5115878;27;20482;-38
2022/09/05 07:50:32;;;;;;;;;;;;;;;23.75;49.77;101612.31;5133161;27;20402;-38
2022/09/05 07:53:18;;;;;;;;;;;;;;;23.75;49.72;101608.72;5121982;27;19943;-40
2022/09/05 07:56:05;;;;;;;;;;;;;;;23.76;49.66;101613.16;5124277;27;20415;-38
2022/09/05 07:58:51;;;;;;;;;;;;;;;23.77;49.90;101610.06;5117383;27;19931;-38
2022/09/05 08:01:16;;;;;;;;;;;;;;;23.76;49.98;101613.97;5132335;27;19970;-39
2022/09/05 08:03:43;;;;;;;;;;;;;;;23.77;49.77;101618.41;5129305;27;19930;-38
2022/09/05 08:06:11;;;;;;;;;;;;;;;23.77;49.67;101615.63;5113579;27;19979;-38
2022/09/05 08:08:58;;;;;;;;;;;;;;;23.76;49.86;101602.84;5125609;27;20007;-38
2022/09/05 08:11:43;;;;;;;;;;;;;;;23.76;49.71;101618.72;5090046;27;20300;-39
2022/09/05 08:14:25;;;;;;;;;;;;;;;23.76;49.95;101608.41;5116918;27;19955;-38
2022/09/05 08:17:13;;;;;;;;;;;;;;;23.77;49.95;101614.78;5119218;28;20022;-40
2022/09/05 08:19:41;;;;;;;;;;;;;;;23.77;50.07;101606.44;5119752;27;20005;-46
2022/09/05 08:22:08;;;;;;;;;;;;;;;23.77;49.96;101609.22;5100131;28;19932;-43
2022/09/05 08:24:38;;;;;;;;;;;;;;;23.77;49.75;101609.22;5118789;27;19963;-44
2022/09/05 08:27:08;;;;;;;;;;;;;;;23.78;49.73;101614.50;5116636;27;20058;-42
2022/09/05 08:29:42;;;;;;;;;;;;;;;23.81;49.81;101604.75;5096680;28;19961;-43
2022/09/05 08:32:10;;;;;;;;;;;;;;;23.82;49.86;101606.38;5117584;27;20018;-43
2022/09/05 08:34:42;;;;;;;;;;;;;;;23.84;50.14;101603.31;5117047;27;20306;-44
2022/09/05 08:37:12;;;;;;;;;;;;;;;23.84;50.16;101600.53;5102682;27;19960;-44
2022/09/05 08:39:40;;;;;;;;;;;;;;;23.85;50.01;101602.19;5114589;27;20478;-43
2022/09/05 08:42:23;;;;;;;;;;;;;;;23.84;49.63;101600.53;5119918;28;19931;-43
2022/09/05 08:44:56;;;;;;;;;;;;;;;23.83;49.74;101602.47;5115980;27;20010;-43
2022/09/05 08:48:01;;;;;;;;;;;;;;;23.84;49.73;101589.41;5100558;28;19931;-42
2022/09/05 08:50:27;;;;;;;;;;;;;;;23.83;49.75;101591.34;5122503;27;19979;-42
2022/09/05 08:52:57;;;;;;;;;;;;;;;23.85;49.73;101593.84;5118719;27;20018;-41
2022/09/05 08:55:43;;;;;;;;;;;;;;;23.85;49.53;101594.69;5121943;27;19935;-42
2022/09/05 08:58:28;;;;;;;;;;;;;;;23.85;49.77;101588.28;5107208;28;20081;-42
2022/09/05 09:00:59;;;;;;;;;;;;;;;23.86;49.62;101593.53;5105967;28;20757;-42
2022/09/05 09:06:30;;;;;;;;;;;;;;;23.86;49.60;101590.75;5149936;27;20046;-40
2022/09/05 09:09:12;;;;;;;;;;;;;;;23.87;49.83;101578.50;5152920;27;19973;-39
2022/09/05 09:11:41;;;;;;;;;;;;;;;23.86;49.76;101579.63;5153074;27;20360;-40
2022/09/05 09:14:19;;;;;;;;;;;;;;;23.88;49.73;101584.91;5158630;27;19988;-39
2022/09/05 09:16:59;;;;;;;;;;;;;;;23.88;49.85;101587.69;5150661;27;19931;-39
2022/09/05 09:19:30;;;;;;;;;;;;;;;23.88;49.68;101582.97;5152651;27;20013;-40
2022/09/05 09:22:02;;;;;;;;;;;;;;;23.88;49.69;101580.19;5150353;27;20013;-39
2022/09/05 09:24:34;;;;;;;;;;;;;;;23.90;49.84;101585.44;5155274;27;20025;-39
2022/09/05 09:27:02;;;;;;;;;;;;;;;23.88;49.48;101577.41;5150571;27;20013;-40
2022/09/05 09:29:28;;;;;;;;;;;;;;;23.90;49.61;101582.66;5135853;27;20390;-39
2022/09/05 09:31:58;;;;;;;;;;;;;;;23.91;49.64;101582.34;5152189;27;19935;-40
2022/09/05 09:37:20;;;;;;;;;;;;;;;23.91;49.79;101571.22;5146704;27;20018;-41
2022/09/05 09:40:25;;;;;;;;;;;;;;;23.91;49.70;101568.44;5117465;27;19935;-40
2022/09/05 09:42:54;;;;;;;;;;;;;;;23.91;49.42;101581.53;5127458;27;20010;-40
2022/09/05 09:45:30;;;;;;;;;;;;;;;23.91;49.64;101574.00;5128257;27;20074;-40
2022/09/05 09:48:15;;;;;;;;;;;;;;;23.92;49.38;101574.81;5124221;27;20258;-40
2022/09/05 09:50:44;;;;;;;;;;;;;;;23.91;49.48;101567.63;5113232;27;20026;-39
2022/09/05 09:53:43;;;;;;;;;;;;;;;23.91;49.49;101567.63;5133456;27;19928;-40
2022/09/05 09:56:29;;;;;;;;;;;;;;;23.91;49.52;101567.63;5116864;27;20425;-41
2022/09/05 09:59:15;;;;;;;;;;;;;;;23.91;49.42;101564.84;5119532;27;20022;-40
2022/09/05 10:01:52;;;;;;;;;;;;;;;23.90;49.55;101566.78;5117505;27;19924;-40
2022/09/05 10:04:21;;;;;;;;;;;;;;;23.90;49.50;101563.19;5137562;27;19935;-39
2022/09/05 10:07:15;;;;;;;;;;;;;;;23.90;49.60;101563.19;5106882;27;19931;-40
2022/09/05 10:10:21;;;;;;;;;;;;;;;23.90;49.59;101557.63;5122029;27;19996;-42
2022/09/05 10:13:27;;;;;;;;;;;;;;;23.90;49.67;101558.44;5106584;27;19923;-39
2022/09/05 10:16:13;;;;;;;;;;;;;;;23.89;49.43;101554.00;5119715;27;20029;-44
2022/09/05 10:18:43;;;;;;;;;;;;;;;23.91;49.48;101550.94;5118729;27;19963;-41
2022/09/05 10:21:30;;;;;;;;;;;;;;;23.90;49.44;101546.50;5136546;27;20012;-40
2022/09/05 10:24:14;;;;;;;;;;;;;;;23.90;49.60;101538.16;5124404;27;20377;-41
2022/09/05 10:26:48;;;;;;;;;;;;;;;23.89;49.57;101536.50;5130379;27;20022;-41
2022/09/05 10:29:27;;;;;;;;;;;;;;;23.89;48.94;101537.31;5128146;27;20383;-42
2022/09/05 10:32:04;;;;;;;;;;;;;;;23.90;48.50;101532.59;5135878;27;20438;-42
2022/09/05 10:34:58;;;;;;;;;;;;;;;23.89;49.49;101534.53;5112699;27;19927;-43
2022/09/05 10:37:47;;;;;;;;;;;;;;;23.88;49.57;101534.84;5105646;27;19924;-43
2022/09/05 10:40:13;;;;;;;;;;;;;;;23.88;49.53;101530.13;5114943;27;19974;-41
2022/09/05 10:42:42;;;;;;;;;;;;;;;23.89;49.35;101528.16;5132868;27;20108;-40
2022/09/05 10:45:30;;;;;;;;;;;;;;;23.89;49.42;101528.97;5104765;27;20011;-40
2022/09/05 10:48:06;;;;;;;;;;;;;;;23.89;49.37;101528.97;5122449;27;19932;-41
2022/09/05 10:50:40;;;;;;;;;;;;;;;23.91;49.49;101525.88;5119530;27;20397;-41
2022/09/05 10:53:27;;;;;;;;;;;;;;;23.90;49.48;101521.47;5120384;27;19934;-42
2022/09/05 10:56:13;;;;;;;;;;;;;;;23.93;48.78;101523.66;5106383;27;19928;-42
2022/09/05 10:59:00;;;;;;;;;;;;;;;23.93;49.05;101518.91;5098479;27;20397;-42
2022/09/05 11:01:49;;;;;;;;;;;;;;;23.91;49.24;101521.16;5090501;27;19931;-40
2022/09/05 11:04:39;;;;;;;;;;;;;;;23.91;49.29;101518.38;5087153;27;19993;-41
2022/09/05 11:07:23;;;;;;;;;;;;;;;23.91;49.16;101515.59;5115304;27;19934;-41
2022/09/05 11:10:00;;;;;;;;;;;;;;;23.92;48.28;101502.50;5110474;27;19970;-41
2022/09/05 11:12:31;;;;;;;;;;;;;;;23.93;48.73;101504.19;5111147;27;20054;-41
2022/09/05 11:14:58;;;;;;;;;;;;;;;23.92;49.23;101502.50;5113459;28;19999;-41
2022/09/05 11:17:26;;;;;;;;;;;;;;;23.91;49.11;101504.47;5102394;28;20351;-41
2022/09/05 11:19:56;;;;;;;;;;;;;;;23.92;49.14;101505.28;5118283;28;19924;-41
2022/09/05 11:22:22;;;;;;;;;;;;;;;23.92;49.26;101491.38;5116857;27;20026;-42
2022/09/05 11:24:51;;;;;;;;;;;;;;;23.94;48.00;101489.13;5121961;27;19931;-44
2022/09/05 11:27:26;;;;;;;;;;;;;;;23.95;47.85;101494.38;5117159;27;20031;-43
2022/09/05 11:29:54;;;;;;;;;;;;;;;24.02;46.82;101489.28;5110905;27;20031;-42
2022/09/05 11:32:25;;;;;;;;;;;;;;;23.98;47.91;101488.22;5095514;27;19956;-42
2022/09/05 11:35:13;;;;;;;;;;;;;;;23.96;48.47;101493.28;5096736;27;20374;-42
2022/09/05 11:38:18;;;;;;;;;;;;;;;23.97;48.43;101488.53;5107287;27;19927;-41
2022/09/05 11:41:24;;;;;;;;;;;;;;;23.96;47.22;101484.09;5095043;28;19943;-42
2022/09/05 11:44:03;;;;;;;;;;;;;;;23.96;48.73;101490.50;5096859;28;19942;-44
2022/09/05 11:46:56;;;;;;;;;;;;;;;23.95;48.67;101482.44;5102664;27;19932;-42
2022/09/05 11:52:42;;;;;;;;;;;;;;;23.94;48.81;101478.00;5148800;27;20030;-41
2022/09/05 11:55:30;;;;;;;;;;;;;;;23.93;48.82;101479.97;5125142;27;20452;-39
2022/09/05 11:58:15;;;;;;;;;;;;;;;23.94;48.80;101475.22;5136577;27;20026;-40
2022/09/05 12:01:04;;;;;;;;;;;;;;;23.94;48.91;101480.78;5109608;27;19924;-41
2022/09/05 12:04:10;;;;;;;;;;;;;;;23.96;48.97;101478.53;5113023;27;19927;-41
2022/09/05 12:09:28;;;;;;;;;;;;;;;23.95;48.89;101474.91;5166631;27;20403;-39
2022/09/05 12:12:15;;;;;;;;;;;;;;;23.96;48.97;101470.16;5121732;27;20043;-41
2022/09/05 12:15:20;;;;;;;;;;;;;;;23.96;48.96;101475.75;5108915;27;20267;-39
2022/09/05 12:17:51;;;;;;;;;;;;;;;23.96;48.94;101473.81;5133652;27;20026;-42
2022/09/05 12:20:21;;;;;;;;;;;;;;;23.96;48.94;101468.25;5135667;27;20272;-40
2022/09/05 12:23:05;;;;;;;;;;;;;;;23.97;48.86;101463.50;5142330;27;19932;-41
2022/09/05 12:25:59;;;;;;;;;;;;;;;23.98;48.77;101467.94;5142460;27;20017;-41
2022/09/05 12:28:46;;;;;;;;;;;;;;;24.08;42.18;101462.22;5119678;27;20371;-41
2022/09/05 12:31:34;;;;;;;;;;;;;;;24.08;45.37;101462.22;5123062;27;20181;-40
2022/09/05 12:34:48;;;;;;;;;;;;;;;24.06;46.41;101447.78;5146849;27;20297;-40
2022/09/05 12:37:36;;;;;;;;;;;;;;;24.03;47.95;101448.38;5131140;27;20047;-40
2022/09/05 12:40:24;;;;;;;;;;;;;;;24.02;48.12;101455.06;5110274;27;19923;-40
2022/09/05 12:43:10;;;;;;;;;;;;;;;24.04;47.94;101458.38;5114247;27;19945;-40
2022/09/05 12:46:14;;;;;;;;;;;;;;;24.02;48.12;101453.13;5127586;27;19976;-40
2022/09/05 12:48:52;;;;;;;;;;;;;;;24.03;47.23;101459.50;5157942;27;20220;-41
2022/09/05 12:51:18;;;;;;;;;;;;;;;24.03;48.05;101453.94;5143454;27;19923;-39
2022/09/05 12:54:08;;;;;;;;;;;;;;;24.04;48.11;101455.59;5132224;27;19923;-40
2022/09/05 12:56:56;;;;;;;;;;;;;;;24.05;48.16;101451.69;5122578;27;19934;-41
2022/09/05 12:59:42;;;;;;;;;;;;;;;24.03;47.88;101451.97;5122568;27;19935;-41
2022/09/05 13:02:29;;;;;;;;;;;;;;;24.04;48.21;101450.84;5137329;27;20046;-40
2022/09/05 13:05:15;;;;;;;;;;;;;;;24.04;48.12;101450.03;5119369;27;19931;-40
2022/09/05 13:07:51;;;;;;;;;;;;;;;24.04;47.79;101444.47;5122614;27;19923;-41
2022/09/05 13:10:20;;;;;;;;;;;;;;;24.04;46.79;101438.91;5138476;27;19986;-40
2022/09/05 13:13:07;;;;;;;;;;;;;;;24.06;48.02;101444.19;5106306;27;19931;-40
2022/09/05 13:15:53;;;;;;;;;;;;;;;24.05;48.24;101435.00;5106224;27;20378;-41
2022/09/05 13:18:21;;;;;;;;;;;;;;;24.04;48.40;101425.81;5141860;27;20334;-40
2022/09/05 13:20:57;;;;;;;;;;;;;;;24.08;48.30;101416.88;5117644;27;20018;-39
2022/09/05 13:26:22;;;;;;;;;;;;;;;24.08;48.09;101414.09;5176977;27;19933;-39
2022/09/05 13:28:51;;;;;;;;;;;;;;;24.07;48.18;101418.81;5158723;27;20035;-41
2022/09/05 13:31:39;;;;;;;;;;;;;;;24.07;44.67;101413.25;5139982;27;19923;-40
2022/09/05 13:34:29;;;;;;;;;;;;;;;24.07;44.62;101404.91;5137260;27;20357;-40
2022/09/05 13:37:16;;;;;;;;;;;;;;;24.11;46.78;101405.13;5145910;27;19930;-39
2022/09/05 13:40:08;;;;;;;;;;;;;;;24.11;46.78;101400.41;5134868;27;20371;-40
2022/09/05 13:42:37;;;;;;;;;;;;;;;24.10;44.93;101406.28;5152890;27;19923;-39
2022/09/05 13:45:07;;;;;;;;;;;;;;;24.10;46.89;101409.06;5142791;27;19929;-41
2022/09/05 13:47:53;;;;;;;;;;;;;;;24.10;47.15;101409.06;5152031;27;19977;-41
2022/09/05 13:50:21;;;;;;;;;;;;;;;24.10;47.77;101398.75;5143401;27;20029;-40
2022/09/05 13:52:55;;;;;;;;;;;;;;;24.11;46.95;101403.19;5135722;27;19966;-39
2022/09/05 13:55:27;;;;;;;;;;;;;;;24.10;45.26;101384.00;5157820;27;19966;-39
2022/09/05 13:57:54;;;;;;;;;;;;;;;24.09;47.50;101393.47;5133880;27;20469;-40
2022/09/05 14:03:18;;;;;;;;;;;;;;;24.10;43.30;101384.00;5169086;27;20022;-39
2022/09/05 14:06:14;;;;;;;;;;;;;;;24.16;42.05;101383.63;5131670;27;20358;-40
2022/09/05 14:09:20;;;;;;;;;;;;;;;24.12;44.66;101379.78;5123996;27;19997;-40
2022/09/05 14:12:24;;;;;;;;;;;;;;;24.11;43.05;101385.66;5141936;27;19924;-39
2022/09/05 14:14:52;;;;;;;;;;;;;;;24.11;42.57;101377.31;5132956;27;20430;-40
2022/09/05 14:17:56;;;;;;;;;;;;;;;24.09;42.97;101374.81;5131991;27;19966;-40
2022/09/05 14:23:23;;;;;;;;;;;;;;;24.09;42.73;101374.81;5122033;27;19930;-40
2022/09/05 14:25:52;;;;;;;;;;;;;;;24.11;43.41;101368.97;5146683;27;19980;-42